Terminal Aerodrome Forecast
Issued by NWS Sterling, VA

Current Version | Previous Version | Text Only | Print | Product List | Glossary On
Versions: 1 2 3 4 5 6 7 8 9 10 11 12
000
FTUS41 KLWX 011100
TAFMRB
TAF
KMRB 011133Z 0112/0212 VRB03KT 5SM BR BKN100
     FM011300 VRB03KT P6SM BKN050 BKN100
     FM011800 18006KT 6SM -SHRA SCT025 OVC050
     FM020000 VRB03KT P6SM SCT025 OVC050
     FM020900 VRB03KT P6SM OVC020=

USA.gov is the U.S. government's official web portal to all federal, state and local government web resources and services.